createdAt,value
2017-09-29T00:01:12.109Z,96503.37
2017-09-29T00:03:39.668Z,96500.92
2017-09-29T00:06:07.286Z,96497.56
2017-09-29T00:08:35.127Z,96490.27
2017-09-29T00:11:02.655Z,96484.91
2017-09-29T00:13:30.179Z,96486.81
2017-09-29T00:15:57.956Z,96478.84
2017-09-29T00:18:25.497Z,96484.48
2017-09-29T00:20:53.272Z,96475.43
2017-09-29T00:23:20.840Z,96474.16
2017-09-29T00:25:48.359Z,96475.45
2017-09-29T00:28:15.885Z,96472.66
2017-09-29T00:30:43.466Z,96467.45
2017-09-29T00:33:11.020Z,96472.37
2017-09-29T00:35:38.568Z,96468.70
2017-09-29T00:38:06.127Z,96464.27
2017-09-29T00:40:33.713Z,96452.17
2017-09-29T00:43:01.312Z,96460.95
2017-09-29T00:45:29.380Z,96454.77
2017-09-29T00:47:56.915Z,96458.73
2017-09-29T00:50:24.471Z,96458.33
2017-09-29T00:52:52.063Z,96459.97
2017-09-29T00:55:20.066Z,96461.53
2017-09-29T00:57:47.869Z,96461.03
2017-09-29T01:00:15.500Z,96459.83
2017-09-29T01:02:43.034Z,96458.66
2017-09-29T01:05:10.786Z,96458.21
2017-09-29T01:07:38.377Z,96461.32
2017-09-29T01:10:05.915Z,96455.88
2017-09-29T01:12:33.484Z,96454.27
2017-09-29T01:15:01.113Z,96444.91
2017-09-29T01:17:28.675Z,96448.88
2017-09-29T01:19:56.263Z,96452.32
2017-09-29T01:22:24.368Z,96452.17
2017-09-29T01:24:51.988Z,96444.84
2017-09-29T01:27:19.528Z,96443.44
2017-09-29T01:29:47.126Z,96446.42
2017-09-29T01:32:14.728Z,96444.99
2017-09-29T01:34:42.292Z,96443.49
2017-09-29T01:37:09.918Z,96436.02
2017-09-29T01:39:37.485Z,96439.82
2017-09-29T01:42:05.251Z,96434.92
2017-09-29T01:44:32.786Z,96436.52
2017-09-29T01:47:00.368Z,96437.94
2017-09-29T01:49:27.944Z,96429.16
2017-09-29T01:51:55.501Z,96431.72
2017-09-29T01:54:23.066Z,96428.13
2017-09-29T01:56:50.655Z,96426.48
2017-09-29T01:59:18.335Z,96428.16
2017-09-29T02:01:45.952Z,96422.80
2017-09-29T02:04:13.740Z,96420.25
2017-09-29T02:06:41.336Z,96424.56
2017-09-29T02:09:08.923Z,96423.24
2017-09-29T02:11:36.450Z,96431.09
2017-09-29T02:14:03.988Z,96421.53
2017-09-29T02:16:31.579Z,96422.73
2017-09-29T02:18:59.355Z,96418.86
2017-09-29T02:21:26.935Z,96420.58
2017-09-29T02:23:54.524Z,96419.45
2017-09-29T02:26:22.097Z,96416.36
2017-09-29T02:28:49.636Z,96415.38
2017-09-29T02:31:17.204Z,96417.70
2017-09-29T02:33:44.753Z,96420.23
2017-09-29T02:36:12.332Z,96410.98
2017-09-29T02:38:39.931Z,96414.72
2017-09-29T02:41:07.529Z,96415.06
2017-09-29T02:43:35.118Z,96407.80
2017-09-29T02:46:02.704Z,96414.80
2017-09-29T02:48:30.272Z,96408.23
2017-09-29T02:50:57.902Z,96406.20
2017-09-29T02:53:25.504Z,96405.64
2017-09-29T02:55:53.078Z,96409.19
2017-09-29T02:58:21.554Z,96409.43
2017-09-29T03:00:50.199Z,96405.42
2017-09-29T03:03:19.109Z,96411.26
2017-09-29T03:05:47.269Z,96406.20
2017-09-29T03:08:14.928Z,96406.20
2017-09-29T03:10:42.492Z,96409.86
2017-09-29T03:13:10.096Z,96411.95
2017-09-29T03:15:37.882Z,96411.69
2017-09-29T03:18:05.428Z,96406.50
2017-09-29T03:20:32.962Z,96403.53
2017-09-29T03:23:00.653Z,96400.43
2017-09-29T03:25:28.224Z,96404.63
2017-09-29T03:27:55.823Z,96409.75
2017-09-29T03:30:23.539Z,96413.22
2017-09-29T03:32:51.074Z,96405.84
2017-09-29T03:35:18.870Z,96407.05
2017-09-29T03:37:46.429Z,96411.58
2017-09-29T03:40:14.272Z,96408.80
2017-09-29T03:42:41.786Z,96407.70
2017-09-29T03:45:09.382Z,96405.47
2017-09-29T03:47:36.924Z,96404.92
2017-09-29T03:50:07.370Z,96412.23
2017-09-29T03:52:36.307Z,96408.68
2017-09-29T03:55:06.114Z,96417.43
2017-09-29T03:57:35.160Z,96409.53
2017-09-29T04:00:02.756Z,96406.72
2017-09-29T04:02:30.370Z,96410.16
2017-09-29T04:04:57.914Z,96413.08
2017-09-29T04:07:25.452Z,96401.23
2017-09-29T04:09:53.017Z,96407.41
2017-09-29T04:12:20.767Z,96419.39
2017-09-29T04:14:48.289Z,96410.77
2017-09-29T04:17:15.895Z,96411.41
2017-09-29T04:19:43.414Z,96414.07
2017-09-29T04:22:10.974Z,96415.90
2017-09-29T04:24:38.777Z,96410.77
2017-09-29T04:27:06.313Z,96414.71
2017-09-29T04:29:33.850Z,96410.88
2017-09-29T04:32:01.434Z,96414.84
2017-09-29T04:34:28.979Z,96418.16
2017-09-29T04:36:56.517Z,96425.25
2017-09-29T04:39:24.108Z,96423.23
2017-09-29T04:41:51.652Z,96415.40
2017-09-29T04:44:19.200Z,96421.61
2017-09-29T04:46:46.785Z,96420.61
2017-09-29T04:49:14.305Z,96428.95
2017-09-29T04:51:42.074Z,96429.52
2017-09-29T04:54:09.655Z,96419.65
2017-09-29T04:56:37.211Z,96419.31
2017-09-29T04:59:05.482Z,96419.72
2017-09-29T05:01:33.050Z,96422.77
2017-09-29T05:04:00.605Z,96428.23
2017-09-29T05:06:28.145Z,96424.66
2017-09-29T05:08:55.712Z,96423.23
2017-09-29T05:11:23.260Z,96416.67
2017-09-29T05:13:50.809Z,96415.53
2017-09-29T05:16:18.360Z,96419.44
2017-09-29T05:18:45.885Z,96426.21
2017-09-29T05:21:13.457Z,96420.34
2017-09-29T05:23:41.003Z,96425.75
2017-09-29T05:26:08.754Z,96430.67
2017-09-29T05:28:36.314Z,96425.69
2017-09-29T05:31:03.882Z,96430.38
2017-09-29T05:33:32.322Z,96428.10
2017-09-29T05:35:59.871Z,96430.27
2017-09-29T05:38:27.422Z,96428.36
2017-09-29T05:40:55.027Z,96429.64
2017-09-29T05:43:22.567Z,96427.20
2017-09-29T05:45:50.135Z,96428.52
2017-09-29T05:48:17.718Z,96428.08
2017-09-29T05:50:45.297Z,96423.94
2017-09-29T05:53:12.877Z,96427.93
2017-09-29T05:55:40.505Z,96433.34
2017-09-29T05:58:08.038Z,96421.63
2017-09-29T06:00:35.629Z,96420.61
2017-09-29T06:03:03.162Z,96425.87
2017-09-29T06:05:30.705Z,96421.67
2017-09-29T06:07:58.284Z,96431.14
2017-09-29T06:10:25.827Z,96423.98
2017-09-29T06:12:53.348Z,96429.51
2017-09-29T06:15:20.902Z,96422.55
2017-09-29T06:17:48.435Z,96426.85
2017-09-29T06:20:15.953Z,96431.01
2017-09-29T06:22:43.496Z,96425.72
2017-09-29T06:25:11.041Z,96425.63
2017-09-29T06:27:38.570Z,96420.00
2017-09-29T06:30:07.408Z,96421.91
2017-09-29T06:32:35.159Z,96421.44
2017-09-29T06:35:02.698Z,96423.63
2017-09-29T06:37:30.265Z,96421.70
2017-09-29T06:39:57.791Z,96429.03
2017-09-29T06:42:25.339Z,96425.77
2017-09-29T06:44:52.895Z,96423.36
2017-09-29T06:47:20.412Z,96431.88
2017-09-29T06:49:48.162Z,96429.28
2017-09-29T06:52:15.744Z,96429.55
2017-09-29T06:54:43.284Z,96425.38
2017-09-29T06:57:10.807Z,96427.99
2017-09-29T06:59:38.396Z,96424.56
2017-09-29T07:02:05.970Z,96424.88
2017-09-29T07:04:33.499Z,96425.27
2017-09-29T07:07:01.070Z,96416.53
2017-09-29T07:09:28.619Z,96418.34
2017-09-29T07:11:56.139Z,96420.92
2017-09-29T07:14:23.675Z,96417.38
2017-09-29T07:16:51.266Z,96423.16
2017-09-29T07:19:18.794Z,96417.45
2017-09-29T07:21:46.334Z,96419.83
2017-09-29T07:24:13.957Z,96429.06
2017-09-29T07:26:43.394Z,96420.81
2017-09-29T07:29:11.290Z,96429.36
2017-09-29T07:31:39.263Z,96424.97
2017-09-29T07:34:07.035Z,96421.91
2017-09-29T07:36:34.650Z,96411.62
2017-09-29T07:39:02.223Z,96415.28
2017-09-29T07:41:30.117Z,96403.70
2017-09-29T07:43:57.622Z,96406.48
2017-09-29T07:46:25.526Z,96403.61
2017-09-29T07:48:53.294Z,96411.36
2017-09-29T07:51:20.824Z,96400.95
2017-09-29T07:53:48.389Z,96406.77
2017-09-29T07:56:15.911Z,96404.70
2017-09-29T07:58:43.647Z,96399.34
2017-09-29T08:01:11.268Z,96402.13
2017-09-29T08:03:38.804Z,96409.43
2017-09-29T08:06:06.339Z,96395.73
2017-09-29T08:08:33.887Z,96391.59
2017-09-29T08:11:01.402Z,96399.43
2017-09-29T08:13:29.196Z,96388.45
2017-09-29T08:15:57.674Z,96380.84
2017-09-29T08:18:25.178Z,96384.81
2017-09-29T08:20:52.923Z,96380.87
2017-09-29T08:23:20.503Z,96393.31
2017-09-29T08:25:48.039Z,96380.11
2017-09-29T08:28:15.563Z,96383.04
2017-09-29T08:30:46.233Z,96378.66
2017-09-29T08:33:14.800Z,96376.55
2017-09-29T08:35:42.330Z,96372.84
2017-09-29T08:38:09.936Z,96369.62
2017-09-29T08:40:37.487Z,96380.08
2017-09-29T08:43:05.003Z,96376.40
2017-09-29T08:45:32.554Z,96372.73
2017-09-29T08:48:00.329Z,96379.59
2017-09-29T08:50:28.156Z,96373.22
2017-09-29T08:52:55.741Z,96365.65
2017-09-29T08:55:23.542Z,96362.47
2017-09-29T08:57:51.054Z,96356.88
2017-09-29T09:00:18.630Z,96360.50
2017-09-29T09:02:46.502Z,96351.32
2017-09-29T09:05:14.972Z,96352.97
2017-09-29T09:07:42.613Z,96344.91
2017-09-29T09:10:10.150Z,96339.66
2017-09-29T09:12:37.669Z,96342.59
2017-09-29T09:15:05.530Z,96347.31
2017-09-29T09:17:33.055Z,96339.93
2017-09-29T09:20:00.575Z,96346.50
2017-09-29T09:22:28.135Z,96345.34
2017-09-29T09:24:55.642Z,96332.20
2017-09-29T09:27:23.157Z,96342.36
2017-09-29T09:29:50.704Z,96338.52
2017-09-29T09:32:18.265Z,96337.95
2017-09-29T09:34:46.188Z,96339.65
2017-09-29T09:37:13.756Z,96335.38
2017-09-29T09:39:41.298Z,96333.98
2017-09-29T09:42:08.822Z,96329.46
2017-09-29T09:44:36.568Z,96331.10
2017-09-29T09:47:04.119Z,96325.20
2017-09-29T09:49:31.956Z,96333.56
2017-09-29T09:51:59.481Z,96323.56
2017-09-29T09:54:27.085Z,96324.83
2017-09-29T09:56:54.609Z,96321.85
2017-09-29T09:59:22.132Z,96326.45
2017-09-29T10:01:49.711Z,96321.77
2017-09-29T10:04:17.247Z,96315.41
2017-09-29T10:06:44.782Z,96320.92
2017-09-29T10:09:12.363Z,96319.12
2017-09-29T10:11:40.257Z,96318.58
2017-09-29T10:14:07.782Z,96314.73
2017-09-29T10:16:35.343Z,96301.91
2017-09-29T10:19:02.903Z,96316.38
2017-09-29T10:21:30.433Z,96301.02
2017-09-29T10:23:58.017Z,96300.90
2017-09-29T10:26:25.531Z,96303.33
2017-09-29T10:28:53.100Z,96298.56
2017-09-29T10:31:20.646Z,96297.28
2017-09-29T10:33:49.093Z,96297.86
2017-09-29T10:36:16.605Z,96289.80
2017-09-29T10:38:44.187Z,96290.88
2017-09-29T10:41:11.932Z,96287.50
2017-09-29T10:43:39.451Z,96291.94
2017-09-29T10:46:07.055Z,96267.52
2017-09-29T10:48:34.844Z,96283.79
2017-09-29T10:51:02.385Z,96272.64
2017-09-29T10:53:30.011Z,96272.87
2017-09-29T10:55:57.585Z,96272.28
2017-09-29T10:58:25.117Z,96274.45
2017-09-29T11:00:52.689Z,96273.37
2017-09-29T11:03:20.215Z,96260.03
2017-09-29T11:05:47.730Z,96266.84
2017-09-29T11:08:15.267Z,96272.55
2017-09-29T11:10:42.778Z,96260.75
2017-09-29T11:13:10.317Z,96265.16
2017-09-29T11:15:37.928Z,96261.97
2017-09-29T11:18:05.503Z,96246.70
2017-09-29T11:20:33.006Z,96247.32
2017-09-29T11:23:00.565Z,96248.46
2017-09-29T11:25:28.084Z,96246.56
2017-09-29T11:27:55.651Z,96246.26
2017-09-29T11:30:23.379Z,96242.09
2017-09-29T11:32:50.891Z,96250.45
2017-09-29T11:35:18.474Z,96255.80
2017-09-29T11:37:46.071Z,96248.67
2017-09-29T11:40:13.596Z,96245.77
2017-09-29T11:42:41.333Z,96235.86
2017-09-29T11:45:08.891Z,96241.47
2017-09-29T11:47:36.455Z,96242.36
2017-09-29T11:50:04.040Z,96243.89
2017-09-29T11:52:31.600Z,96243.32
2017-09-29T11:54:59.138Z,96243.34
2017-09-29T11:57:27.284Z,96244.11
2017-09-29T11:59:54.840Z,96236.27
2017-09-29T12:02:22.524Z,96248.16
2017-09-29T12:04:50.085Z,96231.59
2017-09-29T12:07:17.670Z,96240.34
2017-09-29T12:09:45.234Z,96229.92
2017-09-29T12:12:12.795Z,96227.34
2017-09-29T12:14:40.342Z,96233.11
2017-09-29T12:17:07.891Z,96230.05
2017-09-29T12:19:35.422Z,96220.75
2017-09-29T12:22:02.965Z,96214.70
2017-09-29T12:24:30.569Z,96223.79
2017-09-29T12:26:58.105Z,96227.92
2017-09-29T12:29:25.614Z,96226.27
2017-09-29T12:31:53.222Z,96219.51
2017-09-29T12:34:20.762Z,96228.28
2017-09-29T12:36:49.025Z,96220.98
2017-09-29T12:39:16.595Z,96211.95
2017-09-29T12:41:44.279Z,96214.37
2017-09-29T12:44:11.826Z,96213.00
2017-09-29T12:46:39.435Z,96205.84
2017-09-29T12:49:07.031Z,96207.38
2017-09-29T12:51:34.568Z,96200.36
2017-09-29T12:54:02.195Z,96202.72
2017-09-29T12:56:29.714Z,96201.88
2017-09-29T12:58:57.239Z,96199.80
2017-09-29T13:01:24.834Z,96202.84
2017-09-29T13:03:52.358Z,96196.40
2017-09-29T13:06:20.121Z,96200.73
2017-09-29T13:08:47.676Z,96199.03
2017-09-29T13:11:15.240Z,96194.73
2017-09-29T13:13:42.817Z,96189.66
2017-09-29T13:16:10.395Z,96188.42
2017-09-29T13:18:37.954Z,96188.44
2017-09-29T13:21:05.780Z,96189.55
2017-09-29T13:23:33.261Z,96181.42
2017-09-29T13:26:00.823Z,96185.25
2017-09-29T13:28:28.392Z,96180.73
2017-09-29T13:30:56.063Z,96178.38
2017-09-29T13:33:23.591Z,96175.25
2017-09-29T13:35:51.163Z,96177.02
2017-09-29T13:38:18.754Z,96176.81
2017-09-29T13:40:46.377Z,96175.89
2017-09-29T13:43:13.899Z,96174.28
2017-09-29T13:45:41.491Z,96174.56
2017-09-29T13:48:09.019Z,96168.62
2017-09-29T13:50:36.813Z,96172.12
2017-09-29T13:53:04.433Z,96177.25
2017-09-29T13:55:32.178Z,96175.94
2017-09-29T13:57:59.699Z,96160.17
2017-09-29T14:00:27.353Z,96169.40
2017-09-29T14:02:54.888Z,96174.69
2017-09-29T14:05:22.457Z,96177.02
2017-09-29T14:07:50.038Z,96168.52
2017-09-29T14:10:17.616Z,96169.52
2017-09-29T14:12:45.172Z,96172.09
2017-09-29T14:15:13.699Z,96167.47
2017-09-29T14:17:41.228Z,96164.66
2017-09-29T14:20:08.745Z,96161.94
2017-09-29T14:22:52.439Z,96170.12
2017-09-29T14:25:19.988Z,96168.07
2017-09-29T14:27:47.505Z,96161.86
2017-09-29T14:30:15.190Z,96162.83
2017-09-29T14:32:44.143Z,96168.13
2017-09-29T14:35:11.791Z,96162.23
2017-09-29T14:37:39.383Z,96166.70
2017-09-29T14:40:06.899Z,96162.94
2017-09-29T14:42:34.461Z,96169.48
2017-09-29T14:45:02.042Z,96178.22
2017-09-29T14:47:29.607Z,96169.57
2017-09-29T14:49:57.133Z,96162.75
2017-09-29T14:52:24.950Z,96166.91
2017-09-29T14:54:52.558Z,96168.85
2017-09-29T14:57:20.208Z,96168.33
2017-09-29T14:59:47.828Z,96173.41
2017-09-29T15:02:15.401Z,96183.53
2017-09-29T15:04:43.882Z,96181.38
2017-09-29T15:07:11.446Z,96186.88
2017-09-29T15:09:39.104Z,96192.59
2017-09-29T15:12:06.658Z,96195.72
2017-09-29T15:14:34.244Z,96197.33
2017-09-29T15:17:01.875Z,96200.63
2017-09-29T15:19:36.342Z,96203.03
2017-09-29T15:22:03.936Z,96210.45
2017-09-29T15:24:31.471Z,96203.52
2017-09-29T15:26:58.442Z,96204.38
2017-09-29T15:29:25.983Z,96205.78
2017-09-29T15:31:53.568Z,96212.36
2017-09-29T15:34:21.094Z,96213.91
2017-09-29T15:36:48.647Z,96220.78
2017-09-29T15:39:16.256Z,96220.22
2017-09-29T15:41:43.841Z,96222.94
2017-09-29T15:44:11.349Z,96231.95
2017-09-29T15:46:38.954Z,96223.42
2017-09-29T15:49:06.528Z,96217.50
2017-09-29T15:51:34.091Z,96218.63
2017-09-29T15:54:01.974Z,96223.83
2017-09-29T15:56:29.538Z,96221.87
2017-09-29T15:58:59.642Z,96230.73
2017-09-29T16:01:27.295Z,96231.95
2017-09-29T16:03:54.895Z,96225.84
2017-09-29T16:06:22.418Z,96222.85
2017-09-29T16:08:49.969Z,96223.27
2017-09-29T16:11:17.544Z,96226.85
2017-09-29T16:13:45.077Z,96223.59
2017-09-29T16:16:12.677Z,96231.66
2017-09-29T16:18:40.514Z,96226.73
2017-09-29T16:21:08.038Z,96229.13
2017-09-29T16:23:35.802Z,96227.46
2017-09-29T16:26:03.375Z,96226.56
2017-09-29T16:28:30.943Z,96231.80
2017-09-29T16:30:58.522Z,96232.39
2017-09-29T16:33:26.050Z,96225.89
2017-09-29T16:35:53.557Z,96231.16
2017-09-29T16:38:21.764Z,96230.73
2017-09-29T16:40:49.538Z,96237.45
2017-09-29T16:43:17.067Z,96240.84
2017-09-29T16:45:44.641Z,96243.48
2017-09-29T16:48:12.178Z,96248.11
2017-09-29T16:50:39.698Z,96241.00
2017-09-29T16:53:07.318Z,96245.15
2017-09-29T16:55:34.898Z,96252.28
2017-09-29T16:58:02.494Z,96252.84
2017-09-29T17:00:30.148Z,96254.05
2017-09-29T17:02:57.716Z,96252.05
2017-09-29T17:05:25.252Z,96259.81
2017-09-29T17:07:52.835Z,96255.86
2017-09-29T17:10:20.378Z,96252.11
2017-09-29T17:12:49.174Z,96258.75
2017-09-29T17:15:16.760Z,96261.45
2017-09-29T17:17:44.331Z,96256.34
2017-09-29T17:20:11.846Z,96263.62
2017-09-29T17:22:40.359Z,96264.56
2017-09-29T17:25:07.916Z,96267.69
2017-09-29T17:27:42.224Z,96267.28
2017-09-29T17:30:09.842Z,96275.17
2017-09-29T17:32:37.686Z,96273.08
2017-09-29T17:35:05.203Z,96274.80
2017-09-29T17:37:32.745Z,96281.45
2017-09-29T17:40:00.264Z,96285.62
2017-09-29T17:42:28.130Z,96287.97
2017-09-29T17:44:55.682Z,96284.75
2017-09-29T17:47:23.222Z,96288.25
2017-09-29T17:49:50.752Z,96289.37
2017-09-29T17:52:18.350Z,96289.41
2017-09-29T17:54:48.146Z,96297.73
2017-09-29T17:57:17.870Z,96301.14
2017-09-29T17:59:45.515Z,96302.50
2017-09-29T18:02:13.399Z,96302.36
2017-09-29T18:04:41.749Z,96303.01
2017-09-29T18:07:09.280Z,96301.44
2017-09-29T18:09:36.838Z,96301.02
2017-09-29T18:12:04.807Z,96302.69
2017-09-29T18:14:32.382Z,96311.85
2017-09-29T18:16:59.997Z,96301.73
2017-09-29T18:19:27.567Z,96302.79
2017-09-29T18:21:55.090Z,96306.29
2017-09-29T18:24:22.633Z,96310.88
2017-09-29T18:26:50.146Z,96304.29
2017-09-29T18:29:17.697Z,96311.06
2017-09-29T18:31:45.253Z,96315.99
2017-09-29T18:34:13.400Z,96306.92
2017-09-29T18:36:41.540Z,96304.76
2017-09-29T18:39:09.150Z,96303.02
2017-09-29T18:41:52.243Z,96306.84
2017-09-29T18:44:23.672Z,96312.97
2017-09-29T18:46:52.294Z,96305.63
2017-09-29T18:49:19.813Z,96300.55
2017-09-29T18:51:47.406Z,96300.77
2017-09-29T18:54:14.966Z,96295.84
2017-09-29T18:56:42.505Z,96300.15
2017-09-29T18:59:10.072Z,96294.71
2017-09-29T19:01:37.644Z,96301.25
2017-09-29T19:04:05.186Z,96296.39
2017-09-29T19:06:32.949Z,96303.44
2017-09-29T19:09:00.635Z,96300.01
2017-09-29T19:11:28.367Z,96297.02
2017-09-29T19:13:55.919Z,96296.46
2017-09-29T19:16:23.507Z,96296.53
2017-09-29T19:18:51.270Z,96293.66
2017-09-29T19:21:19.091Z,96295.88
2017-09-29T19:23:46.712Z,96297.48
2017-09-29T19:26:14.293Z,96294.78
2017-09-29T19:28:41.898Z,96301.64
2017-09-29T19:31:11.181Z,96305.95
2017-09-29T19:33:38.714Z,96300.22
2017-09-29T19:36:07.388Z,96302.00
2017-09-29T19:38:34.950Z,96293.87
2017-09-29T19:41:03.083Z,96294.80
2017-09-29T19:43:30.897Z,96294.02
2017-09-29T19:45:58.468Z,96305.49
2017-09-29T19:48:25.993Z,96297.75
2017-09-29T19:50:53.919Z,96300.61
2017-09-29T19:53:21.500Z,96301.73
2017-09-29T19:55:49.289Z,96295.20
2017-09-29T19:58:16.871Z,96293.27
2017-09-29T20:00:44.603Z,96290.36
2017-09-29T20:03:13.859Z,96284.97
2017-09-29T20:05:41.427Z,96290.94
2017-09-29T20:08:09.097Z,96286.89
2017-09-29T20:10:37.691Z,96288.02
2017-09-29T20:13:05.430Z,96288.45
2017-09-29T20:15:33.776Z,96286.64
2017-09-29T20:18:01.399Z,96286.48
2017-09-29T20:20:29.849Z,96292.90
2017-09-29T20:22:57.446Z,96283.89
2017-09-29T20:25:24.986Z,96288.09
2017-09-29T20:27:52.541Z,96285.44
2017-09-29T20:30:20.251Z,96282.00
2017-09-29T20:32:47.790Z,96284.75
2017-09-29T20:35:15.621Z,96284.48
2017-09-29T20:37:43.229Z,96282.35
2017-09-29T20:40:10.743Z,96280.58
2017-09-29T20:42:38.298Z,96279.78
2017-09-29T20:45:05.893Z,96278.93
2017-09-29T20:47:33.477Z,96275.11
2017-09-29T20:50:01.062Z,96272.07
2017-09-29T20:52:28.658Z,96268.70
2017-09-29T20:54:56.202Z,96267.31
2017-09-29T20:57:23.791Z,96267.21
2017-09-29T20:59:51.593Z,96267.09
2017-09-29T21:02:19.237Z,96260.30
2017-09-29T21:04:47.050Z,96262.99
2017-09-29T21:07:15.798Z,96252.23
2017-09-29T21:09:43.519Z,96257.03
2017-09-29T21:12:11.099Z,96258.03
2017-09-29T21:14:38.673Z,96252.23
2017-09-29T21:17:06.242Z,96252.16
2017-09-29T21:19:33.819Z,96251.73
2017-09-29T21:22:01.354Z,96251.05
2017-09-29T21:24:29.028Z,96250.83
2017-09-29T21:26:57.251Z,96242.88
2017-09-29T21:29:25.104Z,96243.14
2017-09-29T21:31:52.915Z,96240.70
2017-09-29T21:34:20.555Z,96244.19
2017-09-29T21:36:48.173Z,96238.15
2017-09-29T21:39:15.785Z,96250.70
2017-09-29T21:41:43.383Z,96237.90
2017-09-29T21:44:11.002Z,96236.25
2017-09-29T21:46:38.597Z,96231.64
2017-09-29T21:49:06.341Z,96226.78
2017-09-29T21:51:33.886Z,96227.55
2017-09-29T21:54:01.467Z,96225.23
2017-09-29T21:56:29.071Z,96215.30
2017-09-29T21:58:56.598Z,96225.58
2017-09-29T22:01:24.515Z,96225.06
2017-09-29T22:03:52.039Z,96219.94
2017-09-29T22:06:19.561Z,96214.75
2017-09-29T22:08:47.144Z,96210.61
2017-09-29T22:11:14.775Z,96212.84
2017-09-29T22:13:42.286Z,96204.87
2017-09-29T22:16:09.906Z,96212.13
2017-09-29T22:18:37.462Z,96204.84
2017-09-29T22:21:05.028Z,96201.88
2017-09-29T22:23:33.585Z,96194.83
2017-09-29T22:26:01.491Z,96197.87
2017-09-29T22:28:29.842Z,96198.11
2017-09-29T22:30:59.258Z,96192.05
2017-09-29T22:33:26.808Z,96192.80
2017-09-29T22:35:54.336Z,96189.32
2017-09-29T22:38:21.926Z,96189.14
2017-09-29T22:40:49.442Z,96182.47
2017-09-29T22:43:17.005Z,96191.01
2017-09-29T22:45:44.566Z,96185.80
2017-09-29T22:48:12.346Z,96189.92
2017-09-29T22:50:39.882Z,96185.52
2017-09-29T22:56:09.571Z,96181.12
2017-09-29T22:58:37.162Z,96187.26
2017-09-29T23:01:04.740Z,96183.81
2017-09-29T23:03:32.268Z,96180.14
2017-09-29T23:06:00.071Z,96183.03
2017-09-29T23:08:27.645Z,96175.45
2017-09-29T23:10:55.163Z,96182.84
2017-09-29T23:13:22.697Z,96172.02
2017-09-29T23:15:50.554Z,96177.89
2017-09-29T23:18:18.194Z,96176.84
2017-09-29T23:20:45.739Z,96179.34
2017-09-29T23:23:13.362Z,96173.66
2017-09-29T23:25:40.909Z,96167.36
2017-09-29T23:28:08.437Z,96175.48
2017-09-29T23:30:36.045Z,96167.48
2017-09-29T23:33:03.592Z,96172.20
2017-09-29T23:35:31.180Z,96161.11
2017-09-29T23:37:58.805Z,96158.80
2017-09-29T23:40:26.779Z,96161.59
2017-09-29T23:42:54.527Z,96157.93
2017-09-29T23:45:22.066Z,96162.84
2017-09-29T23:47:49.598Z,96160.02
2017-09-29T23:50:18.216Z,96159.45
2017-09-29T23:52:45.821Z,96157.98
2017-09-29T23:55:13.715Z,96154.63
2017-09-29T23:57:42.025Z,96154.55
